createdAt,value
2023-05-20T00:02:09.217Z,58.2
2023-05-20T00:07:27.174Z,57.8
2023-05-20T00:12:45.582Z,57.9
2023-05-20T00:18:03.868Z,59.2
2023-05-20T00:23:21.996Z,57.8
2023-05-20T00:28:40.204Z,58.2
2023-05-20T00:33:58.763Z,58.2
2023-05-20T00:39:17.134Z,58.3
2023-05-20T00:44:35.702Z,58.1
2023-05-20T00:49:54.115Z,59
2023-05-20T00:55:12.081Z,57.9
2023-05-20T01:00:30.129Z,59.1
2023-05-20T01:05:48.433Z,58.9
2023-05-20T01:11:06.627Z,57.9
2023-05-20T01:16:09.313Z,58.4
2023-05-20T01:21:27.677Z,58.9
2023-05-20T01:26:45.859Z,59.1
2023-05-20T01:32:04.057Z,58.9
2023-05-20T01:37:22.604Z,58.6
2023-05-20T01:42:41.186Z,58.7
2023-05-20T01:48:00.112Z,59.1
2023-05-20T01:53:18.365Z,60.2
2023-05-20T01:58:36.780Z,59.6
2023-05-20T02:03:39.580Z,59.9
2023-05-20T02:08:57.972Z,59.3
2023-05-20T02:14:16.521Z,59.1
2023-05-20T02:19:34.697Z,59.4
2023-05-20T02:24:53.045Z,59.4
2023-05-20T02:30:11.498Z,60.4
2023-05-20T02:35:30.029Z,59
2023-05-20T02:40:48.536Z,59.8
2023-05-20T02:46:07.168Z,59.6
2023-05-20T02:51:25.767Z,59.2
2023-05-20T02:56:44.122Z,59.7
2023-05-20T03:02:02.539Z,59.4
2023-05-20T03:07:20.713Z,58.8
2023-05-20T03:12:39.255Z,59.8
2023-05-20T03:17:57.397Z,59.1
2023-05-20T03:23:15.612Z,60.2
2023-05-20T03:28:34.121Z,59.9
2023-05-20T03:33:52.736Z,59.2
2023-05-20T03:39:11.076Z,59.2
2023-05-20T03:44:29.077Z,59.1
2023-05-20T03:49:47.459Z,59.1
2023-05-20T03:55:05.677Z,58.9
2023-05-20T04:00:23.828Z,59.4
2023-05-20T04:05:42.027Z,59
2023-05-20T04:11:00.252Z,59.9
2023-05-20T04:16:19.032Z,59.5
2023-05-20T04:21:37.433Z,59.1
2023-05-20T04:26:55.895Z,60.8
2023-05-20T04:32:14.296Z,60.5
2023-05-20T04:37:32.458Z,60.5
2023-05-20T04:42:51.071Z,60.4
2023-05-20T04:48:09.617Z,60
2023-05-20T04:53:28.169Z,59.9
2023-05-20T04:58:46.564Z,59.5
2023-05-20T05:04:04.977Z,60.1
2023-05-20T05:09:23.450Z,59.4
2023-05-20T05:14:41.831Z,59.1
2023-05-20T05:20:00.244Z,60
2023-05-20T05:25:19.028Z,59.8
2023-05-20T05:30:37.046Z,58.9
2023-05-20T05:35:55.565Z,59.6
2023-05-20T05:41:13.904Z,58.8
2023-05-20T05:46:32.498Z,59.7
2023-05-20T05:51:50.882Z,59.2
2023-05-20T05:57:09.464Z,59.1
2023-05-20T06:02:28.018Z,58.9
2023-05-20T06:07:46.241Z,57.9
2023-05-20T06:13:04.606Z,55.9
2023-05-20T06:18:23.183Z,55.6
2023-05-20T06:23:41.533Z,55.2
2023-05-20T06:28:59.921Z,55.3
2023-05-20T06:34:18.132Z,54.8
2023-05-20T06:39:36.471Z,55.1
2023-05-20T06:44:54.887Z,55.6
2023-05-20T06:50:13.410Z,55.4
2023-05-20T06:55:31.840Z,55.7
2023-05-20T07:00:50.503Z,56.7
2023-05-20T07:06:09.098Z,56.1
2023-05-20T07:11:27.263Z,57.3
2023-05-20T07:16:45.924Z,56.4
2023-05-20T07:22:04.310Z,56.5
2023-05-20T07:27:22.607Z,56.9
2023-05-20T07:32:41.110Z,56.4
2023-05-20T07:37:59.488Z,56.5
2023-05-20T07:43:17.860Z,56.7
2023-05-20T07:48:35.982Z,56.9
2023-05-20T07:53:53.996Z,57.3
2023-05-20T07:59:12.543Z,57.1
2023-05-20T08:04:31.117Z,56.7
2023-05-20T08:09:49.578Z,56.5
2023-05-20T08:15:07.910Z,56.9
2023-05-20T08:20:26.111Z,56.7
2023-05-20T08:25:44.472Z,56.3
2023-05-20T08:31:02.777Z,56.5
2023-05-20T08:36:20.953Z,57.2
2023-05-20T08:41:39.527Z,57.1
2023-05-20T08:46:58.189Z,57
2023-05-20T08:52:16.751Z,56.4
2023-05-20T08:57:35.133Z,56.5
2023-05-20T09:02:53.447Z,56.2
2023-05-20T09:08:11.625Z,57
2023-05-20T09:13:30.273Z,56.3
2023-05-20T09:18:49.297Z,57
2023-05-20T09:24:07.261Z,56.8
2023-05-20T09:29:25.741Z,56.7
2023-05-20T09:34:44.066Z,55.9
2023-05-20T09:40:02.473Z,56.8
2023-05-20T09:45:21.015Z,56.9
2023-05-20T09:50:39.345Z,56.9
2023-05-20T09:55:57.843Z,56
2023-05-20T10:01:16.440Z,56.1
2023-05-20T10:06:35.164Z,55.9
2023-05-20T10:11:53.755Z,56.8
2023-05-20T10:17:11.955Z,56.3
2023-05-20T10:22:30.154Z,56
2023-05-20T10:27:48.730Z,56.6
2023-05-20T10:33:08.557Z,56.7
2023-05-20T10:38:27.139Z,55.7
2023-05-20T10:43:45.501Z,55.6
2023-05-20T10:49:04.891Z,55.8
2023-05-20T10:54:22.945Z,55.7
2023-05-20T10:59:41.177Z,55.4
2023-05-20T11:04:59.799Z,55.3
2023-05-20T11:10:18.321Z,54.6
2023-05-20T11:15:36.746Z,53.3
2023-05-20T11:20:54.749Z,52.2
2023-05-20T11:26:13.258Z,52.5
2023-05-20T11:31:31.577Z,52.3
2023-05-20T11:36:49.557Z,52.6
2023-05-20T11:42:08.126Z,51.9
2023-05-20T11:47:26.397Z,51.6
2023-05-20T11:52:44.450Z,51.8
2023-05-20T11:58:02.804Z,52.2
2023-05-20T12:03:21.672Z,51.8
2023-05-20T12:08:39.865Z,51.7
2023-05-20T12:13:58.110Z,52.3
2023-05-20T12:19:16.715Z,52.8
2023-05-20T12:24:34.947Z,52.4
2023-05-20T12:29:53.258Z,53.1
2023-05-20T12:35:11.616Z,52
2023-05-20T12:40:30.034Z,52.5
2023-05-20T12:45:48.396Z,53
2023-05-20T12:51:06.748Z,52.9
2023-05-20T12:56:25.172Z,51.3
2023-05-20T13:01:43.485Z,51.8
2023-05-20T13:07:01.668Z,51.4
2023-05-20T13:12:19.915Z,52.6
2023-05-20T13:17:38.613Z,52.7
2023-05-20T13:22:57.901Z,52.3
2023-05-20T13:28:16.285Z,53.4
2023-05-20T13:33:34.617Z,53.5
2023-05-20T13:38:53.194Z,53.5
2023-05-20T13:43:55.949Z,52.6
2023-05-20T13:49:14.112Z,53
2023-05-20T13:54:32.297Z,53.1
2023-05-20T13:59:50.707Z,53.6
2023-05-20T14:05:08.725Z,53.8
2023-05-20T14:10:27.298Z,53.8
2023-05-20T14:15:45.898Z,53
2023-05-20T14:21:04.249Z,53.4
2023-05-20T14:26:22.437Z,53
2023-05-20T14:31:41.166Z,53.7
2023-05-20T14:36:59.450Z,53.2
2023-05-20T14:42:17.889Z,53
2023-05-20T14:47:36.226Z,53
2023-05-20T14:52:54.692Z,53.6
2023-05-20T14:58:13.214Z,53.9
2023-05-20T15:03:31.488Z,53.1
2023-05-20T15:08:49.550Z,54
2023-05-20T15:14:07.670Z,53.2
2023-05-20T15:19:26.413Z,53.8
2023-05-20T15:24:44.727Z,53.3
2023-05-20T15:30:03.271Z,53.4
2023-05-20T15:35:21.771Z,53.6
2023-05-20T15:40:40.190Z,53.4
2023-05-20T15:45:58.672Z,54.2
2023-05-20T15:51:17.021Z,53.4
2023-05-20T15:56:35.644Z,54.3
2023-05-20T16:02:02.947Z,53.6
2023-05-20T16:07:21.255Z,53.5
2023-05-20T16:12:39.188Z,54.4
2023-05-20T16:17:58.004Z,53.6
2023-05-20T16:23:16.421Z,53.7
2023-05-20T16:28:35.121Z,54.4
2023-05-20T16:33:53.511Z,53.7
2023-05-20T16:39:11.740Z,54.4
2023-05-20T16:44:30.209Z,53.6
2023-05-20T16:49:48.769Z,54.7
2023-05-20T16:55:07.186Z,54.5
2023-05-20T17:00:25.300Z,54.6
2023-05-20T17:05:44.019Z,53.7
2023-05-20T17:11:02.294Z,53.8
2023-05-20T17:16:21.228Z,54.1
2023-05-20T17:21:39.568Z,53.7
2023-05-20T17:26:58.183Z,54.6
2023-05-20T17:32:16.405Z,54
2023-05-20T17:37:34.771Z,54.5
2023-05-20T17:42:53.487Z,54.8
2023-05-20T17:48:12.894Z,54.7
2023-05-20T17:53:31.432Z,54.8
2023-05-20T17:58:49.732Z,55
2023-05-20T18:04:08.021Z,54.6
2023-05-20T18:09:26.184Z,54.1
2023-05-20T18:14:44.363Z,54.4
2023-05-20T18:20:02.703Z,55
2023-05-20T18:25:21.252Z,55
2023-05-20T18:30:39.430Z,54.9
2023-05-20T18:35:57.809Z,55.1
2023-05-20T18:41:16.168Z,54.9
2023-05-20T18:46:34.393Z,54.5
2023-05-20T18:51:52.526Z,54.4
2023-05-20T18:57:10.729Z,54.9
2023-05-20T19:02:29.431Z,55.1
2023-05-20T19:07:47.832Z,55.1
2023-05-20T19:13:06.478Z,54.7
2023-05-20T19:18:25.018Z,55
2023-05-20T19:23:43.493Z,54.4
2023-05-20T19:29:02.072Z,55
2023-05-20T19:34:20.212Z,55.2
2023-05-20T19:39:38.665Z,55
2023-05-20T19:44:57.388Z,55.1
2023-05-20T19:50:16.032Z,55.2
2023-05-20T19:55:34.683Z,55.2
2023-05-20T20:00:53.376Z,54.4
2023-05-20T20:06:11.736Z,54.4
2023-05-20T20:11:29.882Z,54.8
2023-05-20T20:16:48.049Z,54.7
2023-05-20T20:22:06.065Z,55.2
2023-05-20T20:32:57.204Z,54.8
2023-05-20T20:38:15.650Z,54.4
2023-05-20T20:43:33.595Z,54.4
2023-05-20T20:48:51.932Z,55.5
2023-05-20T20:54:09.959Z,54.8
2023-05-20T20:59:28.519Z,54.2
2023-05-20T21:04:46.654Z,55.2
2023-05-20T21:10:05.023Z,54.6
2023-05-20T21:15:23.379Z,54.7
2023-05-20T21:20:41.521Z,55.3
2023-05-20T21:25:59.918Z,54.7
2023-05-20T21:31:18.471Z,54.8
2023-05-20T21:36:36.927Z,55.6
2023-05-20T21:41:55.286Z,55.7
2023-05-20T21:47:13.245Z,55.5
2023-05-20T21:52:15.929Z,55.7
2023-05-20T21:57:34.403Z,55.6
2023-05-20T22:02:53.104Z,55.3
2023-05-20T22:08:11.303Z,54.7
2023-05-20T22:18:57.613Z,55.1
2023-05-20T22:24:15.745Z,55.1
2023-05-20T22:29:34.159Z,55.7
2023-05-20T22:34:52.750Z,56.1
2023-05-20T22:40:10.754Z,55.3
2023-05-20T22:45:29.286Z,54.9
2023-05-20T22:50:47.685Z,55.2
2023-05-20T22:56:06.242Z,55.4
2023-05-20T23:01:24.891Z,55.7
2023-05-20T23:06:43.415Z,55.5
2023-05-20T23:12:01.933Z,54.8
2023-05-20T23:17:20.148Z,56.4
2023-05-20T23:22:38.705Z,56.3
2023-05-20T23:27:56.824Z,55.7
2023-05-20T23:33:15.823Z,56
2023-05-20T23:38:34.296Z,56
2023-05-20T23:43:52.421Z,56.8
2023-05-20T23:49:10.864Z,56.6
2023-05-20T23:54:29.272Z,56
2023-05-20T23:59:47.432Z,57.2
